Time;durP1;ratioP1;P1;durP2;ratioP2;P2;SDS_P1;SDS_P2;PMS_P1;PMS_P2;Temp;Humidity;BMP_temperature;BMP_pressure;BME280_temperature;BME280_humidity;BME280_pressure;Samples;Min_cycle;Max_cycle;Signal;HPM_P1;HPM_P2
2024/01/08 00:02:15;;;;;;;12.18;6.45;;;-1.80;1.00;;;;;;5073427;28;20028;-77
2024/01/08 00:04:41;;;;;;;11.77;6.18;;;-1.90;1.00;;;;;;5073195;28;20155;-77
2024/01/08 00:07:06;;;;;;;16.02;6.95;;;-1.90;1.00;;;;;;5073214;28;20470;-77
2024/01/08 00:09:32;;;;;;;12.23;6.68;;;-2.00;1.00;;;;;;5072777;28;20028;-77
2024/01/08 00:11:57;;;;;;;10.70;6.20;;;-1.90;1.00;;;;;;5073113;28;20035;-77
2024/01/08 00:14:23;;;;;;;12.70;6.25;;;-2.10;1.00;;;;;;5073059;28;20115;-77
2024/01/08 00:16:48;;;;;;;12.27;7.38;;;-2.10;1.00;;;;;;5073010;28;20157;-77
2024/01/08 00:19:14;;;;;;;10.98;6.38;;;-2.10;1.00;;;;;;5072945;28;20068;-76
2024/01/08 00:21:41;;;;;;;13.20;7.32;;;-2.20;1.00;;;;;;5072606;28;20115;-77
2024/01/08 00:24:07;;;;;;;13.13;6.55;;;-2.30;2.30;;;;;;5073125;28;20532;-76
2024/01/08 00:26:32;;;;;;;11.70;5.90;;;-2.20;8.80;;;;;;5072606;28;20055;-77
2024/01/08 00:28:59;;;;;;;16.23;7.78;;;-2.10;11.10;;;;;;5072834;28;20443;-76
2024/01/08 00:31:24;;;;;;;15.15;7.30;;;-2.10;13.70;;;;;;5072480;28;20067;-76
2024/01/08 00:33:50;;;;;;;11.25;6.03;;;-2.20;16.50;;;;;;5073119;28;20060;-77
2024/01/08 00:36:15;;;;;;;15.60;7.60;;;-2.10;19.50;;;;;;5072787;28;20028;-77
2024/01/08 00:38:41;;;;;;;15.35;8.52;;;-2.10;24.20;;;;;;5074097;28;20098;-76
2024/01/08 00:41:07;;;;;;;11.88;6.93;;;-2.10;24.70;;;;;;5076303;28;20037;-76
2024/01/08 00:43:32;;;;;;;14.70;7.25;;;-2.00;26.70;;;;;;5076606;28;20035;-76
2024/01/08 00:45:58;;;;;;;15.55;7.70;;;-2.00;26.90;;;;;;5076423;28;20033;-76
2024/01/08 00:48:23;;;;;;;13.25;7.00;;;-2.00;24.80;;;;;;5076027;28;20020;-77
2024/01/08 00:50:51;;;;;;;16.45;8.35;;;-2.00;21.60;;;;;;5076421;28;20029;-77
2024/01/08 00:53:17;;;;;;;17.20;7.82;;;-2.00;24.70;;;;;;5076361;28;20035;-76
2024/01/08 00:55:42;;;;;;;13.13;7.40;;;-2.00;23.10;;;;;;5076320;28;20029;-77
2024/01/08 00:58:08;;;;;;;15.35;7.05;;;-1.90;24.10;;;;;;5076503;28;20032;-76
2024/01/08 01:00:33;;;;;;;18.30;7.68;;;-1.90;21.90;;;;;;5076300;28;20024;-76
2024/01/08 01:02:59;;;;;;;17.65;7.47;;;-1.90;14.10;;;;;;5076199;28;20024;-77
2024/01/08 01:05:24;;;;;;;14.07;6.70;;;-1.90;16.50;;;;;;5075719;28;20390;-77
2024/01/08 01:07:50;;;;;;;17.83;8.50;;;-1.90;17.20;;;;;;5076256;28;20020;-77
2024/01/08 01:10:15;;;;;;;16.75;6.80;;;-1.90;18.60;;;;;;5076164;28;20021;-77
2024/01/08 01:12:41;;;;;;;17.17;7.97;;;-1.90;22.60;;;;;;5076045;28;20036;-76
2024/01/08 01:15:07;;;;;;;19.35;7.68;;;-1.90;19.50;;;;;;5076162;28;20028;-77
2024/01/08 01:17:32;;;;;;;17.80;8.30;;;-1.90;14.60;;;;;;5076034;28;20037;-77
2024/01/08 01:19:58;;;;;;;19.35;9.25;;;-1.80;21.60;;;;;;5075735;28;20032;-76
2024/01/08 01:22:23;;;;;;;14.07;7.90;;;-1.80;26.00;;;;;;5075903;28;20039;-76
2024/01/08 01:24:49;;;;;;;16.85;8.45;;;-1.80;31.10;;;;;;5075924;28;20035;-77
2024/01/08 01:27:14;;;;;;;15.90;8.00;;;-1.90;30.50;;;;;;5075960;28;20043;-76
2024/01/08 01:29:40;;;;;;;17.15;9.15;;;-1.90;35.10;;;;;;5075940;28;20117;-76
2024/01/08 01:32:05;;;;;;;17.70;8.32;;;-1.90;39.90;;;;;;5075731;28;20036;-75
2024/01/08 01:34:31;;;;;;;17.30;8.90;;;-1.90;37.70;;;;;;5075628;28;20032;-77
2024/01/08 01:36:57;;;;;;;18.33;9.13;;;-1.90;41.70;;;;;;5075299;28;20035;-77
2024/01/08 01:39:22;;;;;;;19.27;8.68;;;-1.90;40.20;;;;;;5075175;28;20055;-76
2024/01/08 01:41:50;;;;;;;16.58;8.70;;;-1.80;40.00;;;;;;5075449;28;20120;-76
2024/01/08 01:44:16;;;;;;;22.13;8.93;;;-1.90;40.80;;;;;;5075046;28;20024;-77
2024/01/08 01:46:50;;;;;;;14.15;7.30;;;-1.90;47.20;;;;;;5075458;28;20032;-77
2024/01/08 01:49:18;;;;;;;21.25;9.43;;;-1.80;43.20;;;;;;5074997;28;20024;-76
2024/01/08 01:51:46;;;;;;;15.05;7.28;;;-1.80;45.60;;;;;;5075317;28;20027;-76
2024/01/08 01:54:13;;;;;;;15.88;8.20;;;-1.80;48.50;;;;;;5074956;28;20132;-76
2024/01/08 01:56:41;;;;;;;16.33;8.85;;;-1.90;51.50;;;;;;5075340;28;20082;-76
2024/01/08 01:59:07;;;;;;;17.15;8.10;;;-1.80;48.90;;;;;;5075376;28;20032;-76
2024/01/08 02:01:35;;;;;;;18.90;8.65;;;-1.80;51.70;;;;;;5074633;28;20028;-76
2024/01/08 02:04:02;;;;;;;16.20;8.25;;;-1.80;57.20;;;;;;5075258;28;20033;-77
2024/01/08 02:06:29;;;;;;;17.40;9.20;;;-1.80;57.80;;;;;;5074619;28;20017;-77
2024/01/08 02:08:55;;;;;;;18.40;8.73;;;-1.80;58.00;;;;;;5074562;28;20059;-76
2024/01/08 02:11:21;;;;;;;17.27;8.10;;;-1.80;59.10;;;;;;5075012;28;20060;-76
2024/01/08 02:13:47;;;;;;;17.10;9.57;;;-1.80;58.60;;;;;;5074888;28;20070;-76
2024/01/08 02:16:14;;;;;;;17.73;9.45;;;-1.80;65.90;;;;;;5074798;28;20028;-76
2024/01/08 02:18:39;;;;;;;16.40;7.30;;;-1.80;68.70;;;;;;5074875;28;20507;-76
2024/01/08 02:21:05;;;;;;;16.45;9.10;;;-1.80;66.90;;;;;;5074507;28;20037;-77
2024/01/08 02:23:30;;;;;;;18.92;9.15;;;-1.90;65.50;;;;;;5074209;28;20024;-77
2024/01/08 02:25:56;;;;;;;15.82;9.13;;;-1.90;72.80;;;;;;5074260;28;20104;-77
2024/01/08 02:28:22;;;;;;;15.88;8.23;;;-1.90;81.20;;;;;;5074199;28;20025;-76
2024/01/08 02:30:48;;;;;;;19.40;9.88;;;-1.80;82.00;;;;;;5074556;28;20032;-76
2024/01/08 02:33:14;;;;;;;19.90;9.43;;;-1.80;78.00;;;;;;5074612;28;20098;-77
2024/01/08 02:35:39;;;;;;;13.98;6.97;;;-1.90;82.90;;;;;;5074629;28;20024;-77
2024/01/08 02:38:05;;;;;;;19.05;9.75;;;-1.90;92.10;;;;;;5074193;28;20024;-76
2024/01/08 02:40:31;;;;;;;18.33;9.18;;;-1.90;92.30;;;;;;5074014;28;20032;-77
2024/01/08 02:42:56;;;;;;;19.50;9.95;;;-1.90;94.70;;;;;;5074213;28;20040;-76
2024/01/08 02:45:22;;;;;;;16.45;9.32;;;-1.90;95.10;;;;;;5073803;28;20024;-77
2024/01/08 02:47:47;;;;;;;21.85;10.07;;;-1.90;96.60;;;;;;5074210;28;20029;-77
2024/01/08 02:50:13;;;;;;;18.92;8.77;;;-1.90;99.60;;;;;;5073960;28;20033;-76
2024/01/08 02:52:39;;;;;;;19.65;10.27;;;-1.90;99.10;;;;;;5074112;28;20086;-76
2024/01/08 02:55:04;;;;;;;22.67;10.05;;;-1.80;98.80;;;;;;5074190;28;20051;-77
2024/01/08 02:57:30;;;;;;;19.15;9.25;;;-1.80;99.90;;;;;;5073553;28;20025;-77
2024/01/08 02:59:56;;;;;;;16.02;8.80;;;-1.80;99.80;;;;;;5073507;28;20029;-77
2024/01/08 03:02:25;;;;;;;19.77;10.07;;;-1.80;99.90;;;;;;5073322;28;20079;-76
2024/01/08 03:04:51;;;;;;;17.90;9.13;;;-1.80;99.90;;;;;;5073928;28;20025;-76
2024/01/08 03:07:19;;;;;;;21.08;9.93;;;-1.80;99.90;;;;;;5073971;28;20024;-76
2024/01/08 03:09:46;;;;;;;20.08;10.77;;;-1.80;99.90;;;;;;5073894;28;20385;-77
2024/01/08 03:12:12;;;;;;;17.92;9.82;;;-1.80;99.90;;;;;;5073487;28;20494;-77
2024/01/08 03:14:38;;;;;;;22.05;11.65;;;-1.80;99.90;;;;;;5073459;28;20432;-76
2024/01/08 03:17:04;;;;;;;23.83;11.43;;;-1.80;99.90;;;;;;5073448;28;20073;-76
2024/01/08 03:19:29;;;;;;;20.80;10.50;;;-1.80;99.90;;;;;;5073624;28;20029;-76
2024/01/08 03:21:55;;;;;;;20.77;11.02;;;-1.80;99.90;;;;;;5073267;28;20501;-77
2024/01/08 03:24:21;;;;;;;17.40;10.68;;;-1.80;99.90;;;;;;5073629;28;20033;-76
2024/01/08 03:26:46;;;;;;;23.50;10.27;;;-1.80;99.10;;;;;;5073869;28;20386;-76
2024/01/08 03:29:12;;;;;;;21.98;9.80;;;-1.80;99.70;;;;;;5073556;28;20490;-76
2024/01/08 03:31:45;;;;;;;20.63;9.60;;;-1.80;98.10;;;;;;5073742;28;20028;-76
2024/01/08 03:34:11;;;;;;;17.75;10.00;;;-1.80;97.10;;;;;;5073755;28;20031;-76
2024/01/08 03:36:37;;;;;;;21.98;10.95;;;-1.80;97.20;;;;;;5073814;28;20028;-76
2024/01/08 03:39:02;;;;;;;23.90;10.88;;;-1.80;98.30;;;;;;5073685;28;20406;-77
2024/01/08 03:41:28;;;;;;;13.35;6.97;;;-1.80;99.00;;;;;;5073638;28;20021;-77
2024/01/08 03:43:53;;;;;;;20.45;10.77;;;-1.80;96.20;;;;;;5074334;28;20024;-77
2024/01/08 03:46:19;;;;;;;17.63;8.88;;;-1.80;98.20;;;;;;5073194;28;20025;-77
2024/01/08 03:48:44;;;;;;;21.48;10.13;;;-1.80;97.40;;;;;;5073155;28;20074;-77
2024/01/08 03:51:10;;;;;;;20.65;10.90;;;-1.80;97.50;;;;;;5073153;28;20029;-76
2024/01/08 03:53:35;;;;;;;23.70;11.95;;;-1.70;97.90;;;;;;5073354;28;20029;-77
2024/01/08 03:56:01;;;;;;;24.73;11.65;;;-1.80;99.40;;;;;;5072957;28;20031;-77
2024/01/08 03:58:27;;;;;;;25.08;11.93;;;-1.80;98.50;;;;;;5072824;28;20481;-77
2024/01/08 04:00:53;;;;;;;24.00;11.55;;;-1.80;99.60;;;;;;5072884;28;20033;-77
2024/01/08 04:03:19;;;;;;;22.95;11.30;;;-1.70;99.90;;;;;;5072861;28;20024;-77
2024/01/08 04:05:45;;;;;;;20.67;10.98;;;-1.80;99.90;;;;;;5072873;28;20023;-76
2024/01/08 04:08:10;;;;;;;24.67;12.13;;;-1.70;99.60;;;;;;5072906;28;20029;-77
2024/01/08 04:10:36;;;;;;;23.20;11.80;;;-1.70;98.90;;;;;;5073584;28;20033;-77
2024/01/08 04:13:03;;;;;;;23.17;10.75;;;-1.70;99.90;;;;;;5076111;28;20024;-77
2024/01/08 04:15:28;;;;;;;20.60;10.88;;;-1.70;98.60;;;;;;5077765;28;20538;-77
2024/01/08 04:17:54;;;;;;;22.67;11.10;;;-1.70;98.60;;;;;;5077686;28;20115;-77
2024/01/08 04:20:20;;;;;;;24.45;12.23;;;-1.70;99.90;;;;;;5077773;28;20124;-77
2024/01/08 04:22:45;;;;;;;24.55;11.68;;;-1.70;99.90;;;;;;5077778;28;20462;-77
2024/01/08 04:25:11;;;;;;;24.20;12.30;;;-1.70;99.90;;;;;;5077652;28;20098;-76
2024/01/08 04:27:37;;;;;;;23.25;11.40;;;-1.70;99.90;;;;;;5077068;28;20347;-77
2024/01/08 04:30:03;;;;;;;22.92;12.10;;;-1.60;99.90;;;;;;5077377;28;20085;-77
2024/01/08 04:32:29;;;;;;;27.83;12.25;;;-1.60;99.90;;;;;;5077025;28;20036;-77
2024/01/08 04:34:54;;;;;;;24.38;11.80;;;-1.70;98.90;;;;;;5076944;28;20069;-77
2024/01/08 04:37:20;;;;;;;23.77;11.30;;;-1.60;97.30;;;;;;5077370;28;20058;-77
2024/01/08 04:39:46;;;;;;;24.10;12.10;;;-1.60;96.40;;;;;;5076829;28;20098;-77
2024/01/08 04:42:11;;;;;;;22.25;10.75;;;-1.60;97.20;;;;;;5077322;28;20123;-76
2024/01/08 04:44:37;;;;;;;17.70;9.38;;;-1.60;96.70;;;;;;5077398;28;20032;-77
2024/01/08 04:47:03;;;;;;;22.83;10.68;;;-1.60;97.40;;;;;;5076855;28;20070;-77
2024/01/08 04:49:28;;;;;;;21.65;11.65;;;-1.50;97.70;;;;;;5077200;28;20330;-77
2024/01/08 04:51:54;;;;;;;25.02;11.65;;;-1.50;96.30;;;;;;5076574;28;20020;-77
2024/01/08 04:54:19;;;;;;;22.50;11.55;;;-1.60;97.40;;;;;;5076829;28;20024;-76
2024/01/08 04:56:47;;;;;;;18.83;10.23;;;-1.50;96.60;;;;;;5076705;28;20070;-77
2024/01/08 04:59:12;;;;;;;21.85;11.43;;;-1.50;95.40;;;;;;5077331;28;20031;-76
2024/01/08 05:01:38;;;;;;;22.85;11.25;;;-1.50;93.00;;;;;;5077403;28;20028;-76
2024/01/08 05:04:04;;;;;;;22.23;10.93;;;-1.50;91.60;;;;;;5077977;28;20028;-76
2024/01/08 05:06:30;;;;;;;23.25;12.00;;;-1.50;92.10;;;;;;5076734;28;20028;-77
2024/01/08 05:08:55;;;;;;;22.77;11.32;;;-1.50;86.00;;;;;;5075892;28;20025;-77
2024/01/08 05:11:21;;;;;;;21.65;11.98;;;-1.40;88.50;;;;;;5076534;28;20033;-77
2024/01/08 05:13:47;;;;;;;21.50;10.07;;;-1.40;83.40;;;;;;5076114;28;20402;-76
2024/01/08 05:16:12;;;;;;;19.80;10.55;;;-1.40;80.40;;;;;;5076143;28;20039;-76
2024/01/08 05:18:38;;;;;;;25.05;10.60;;;-1.40;74.40;;;;;;5076624;28;20024;-77
2024/01/08 05:21:04;;;;;;;21.10;11.18;;;-1.40;80.30;;;;;;5075961;28;20021;-77
2024/01/08 05:23:30;;;;;;;18.75;9.43;;;-1.40;77.40;;;;;;5075427;28;20029;-76
2024/01/08 05:25:59;;;;;;;17.88;10.15;;;-1.30;74.40;;;;;;5075202;28;20029;-76
2024/01/08 05:28:27;;;;;;;21.65;11.05;;;-1.30;72.30;;;;;;5075899;28;20501;-77
2024/01/08 05:30:52;;;;;;;21.17;11.65;;;-1.30;62.60;;;;;;5075934;28;20391;-77
2024/01/08 05:33:18;;;;;;;18.00;10.38;;;-1.30;55.10;;;;;;5075801;28;20021;-77
2024/01/08 05:35:44;;;;;;;17.90;8.95;;;-1.30;46.20;;;;;;5076250;28;20553;-76
2024/01/08 05:38:10;;;;;;;16.10;9.68;;;-1.30;35.70;;;;;;5075664;28;20024;-76
2024/01/08 05:40:36;;;;;;;16.77;9.07;;;-1.30;25.20;;;;;;5075732;28;20448;-76
2024/01/08 05:43:03;;;;;;;14.52;8.63;;;-1.20;15.10;;;;;;5075563;28;20032;-77
2024/01/08 05:45:29;;;;;;;17.75;9.90;;;-1.20;5.40;;;;;;5075531;28;20021;-76
2024/01/08 05:47:55;;;;;;;19.35;9.43;;;-1.20;1.00;;;;;;5075616;28;20028;-77
2024/01/08 05:50:25;;;;;;;9.15;5.75;;;-1.20;1.00;;;;;;5075647;28;20028;-76
2024/01/08 05:52:51;;;;;;;11.70;6.45;;;-1.20;1.00;;;;;;5075414;28;20474;-77
2024/01/08 05:55:17;;;;;;;14.25;7.65;;;-1.10;1.00;;;;;;5075405;28;20190;-77
2024/01/08 05:57:42;;;;;;;13.25;7.63;;;-1.10;1.00;;;;;;5075096;28;20437;-77
2024/01/08 06:00:08;;;;;;;13.27;6.68;;;-1.10;1.00;;;;;;5075255;28;20060;-77
2024/01/08 06:02:34;;;;;;;13.73;6.55;;;-1.10;1.00;;;;;;5075169;28;20068;-77
2024/01/08 06:05:00;;;;;;;14.65;7.53;;;-1.10;1.00;;;;;;5075066;28;20025;-77
2024/01/08 06:07:25;;;;;;;21.50;9.48;;;-1.10;1.00;;;;;;5074813;28;20020;-77
2024/01/08 06:09:51;;;;;;;16.05;8.27;;;-1.10;1.00;;;;;;5074791;28;20425;-77
2024/01/08 06:12:17;;;;;;;13.57;7.35;;;-1.10;1.00;;;;;;5074722;28;20024;-76
2024/01/08 06:14:43;;;;;;;17.83;8.65;;;-1.10;1.00;;;;;;5075020;28;20039;-77
2024/01/08 06:17:10;;;;;;;19.63;8.57;;;-1.20;1.00;;;;;;5074804;28;20032;-77
2024/01/08 06:19:35;;;;;;;14.55;8.15;;;-1.20;4.90;;;;;;5074834;28;20032;-77
2024/01/08 06:22:01;;;;;;;14.98;8.43;;;-1.20;17.90;;;;;;5074393;28;20022;-77
2024/01/08 06:24:27;;;;;;;17.75;8.65;;;-1.30;22.50;;;;;;5074836;28;20036;-77
2024/01/08 06:26:52;;;;;;;19.63;9.50;;;-1.20;38.60;;;;;;5074589;28;20024;-77
2024/01/08 06:29:18;;;;;;;21.67;9.25;;;-1.30;40.30;;;;;;5075026;28;20031;-76
2024/01/08 06:31:45;;;;;;;15.57;8.45;;;-1.30;49.70;;;;;;5074291;28;20035;-76
2024/01/08 06:34:11;;;;;;;18.63;10.30;;;-1.30;56.10;;;;;;5074727;28;20033;-76
2024/01/08 06:36:38;;;;;;;16.45;9.00;;;-1.30;51.90;;;;;;5074738;28;20044;-76
2024/01/08 06:39:04;;;;;;;15.52;9.10;;;-1.30;55.80;;;;;;5073977;28;20414;-77
2024/01/08 06:41:30;;;;;;;18.25;9.93;;;-1.30;61.30;;;;;;5074039;28;20034;-77
2024/01/08 06:43:56;;;;;;;17.73;10.15;;;-1.30;67.40;;;;;;5074382;28;20025;-76
2024/01/08 06:46:22;;;;;;;20.73;10.00;;;-1.30;67.00;;;;;;5074566;28;20041;-77
2024/01/08 06:48:47;;;;;;;14.20;8.43;;;-1.30;54.70;;;;;;5074198;28;20474;-77
2024/01/08 06:51:13;;;;;;;17.38;9.85;;;-1.30;58.60;;;;;;5073874;28;20111;-77
2024/01/08 06:53:39;;;;;;;18.67;9.07;;;-1.30;64.10;;;;;;5074272;28;20064;-78
2024/01/08 06:56:05;;;;;;;16.55;8.65;;;-1.40;70.10;;;;;;5073910;28;20539;-77
2024/01/08 06:58:31;;;;;;;20.02;9.88;;;-1.30;69.80;;;;;;5073576;28;20028;-77
2024/01/08 07:00:56;;;;;;;19.73;10.13;;;-1.30;73.10;;;;;;5073854;28;20039;-77
2024/01/08 07:03:22;;;;;;;20.60;9.93;;;-1.30;76.50;;;;;;5074160;28;20078;-78
2024/01/08 07:05:48;;;;;;;18.63;9.57;;;-1.30;81.80;;;;;;5075586;28;20047;-76
2024/01/08 07:08:13;;;;;;;22.95;10.00;;;-1.40;78.40;;;;;;5073758;28;20110;-76
2024/01/08 07:10:39;;;;;;;19.45;10.50;;;-1.30;83.70;;;;;;5068533;28;20482;-76
2024/01/08 07:13:04;;;;;;;18.85;10.40;;;-1.40;75.80;;;;;;5053125;28;20398;-76
2024/01/08 07:15:43;;;;;;;20.05;9.60;;;-1.40;80.80;;;;;;5054884;28;20040;-77
2024/01/08 07:18:09;;;;;;;14.80;8.30;;;-1.40;77.00;;;;;;5053476;28;20021;-77
2024/01/08 07:20:37;;;;;;;19.85;10.02;;;-1.40;74.90;;;;;;5059055;28;20024;-77
2024/01/08 07:23:03;;;;;;;20.25;9.25;;;-1.30;89.10;;;;;;5053814;28;20040;-76
2024/01/08 07:25:29;;;;;;;18.40;10.30;;;-1.30;90.60;;;;;;5059992;28;20040;-77
2024/01/08 07:27:54;;;;;;;15.57;8.95;;;-1.30;91.30;;;;;;5074826;28;20051;-77
2024/01/08 07:30:20;;;;;;;15.40;8.02;;;-1.30;97.10;;;;;;5072893;28;20055;-74
2024/01/08 07:32:47;;;;;;;17.27;9.55;;;-1.30;93.20;;;;;;5059856;28;20036;-75
2024/01/08 07:35:13;;;;;;;16.00;9.57;;;-1.30;83.00;;;;;;5057632;28;20037;-76
2024/01/08 07:37:39;;;;;;;18.48;9.52;;;-1.30;90.00;;;;;;5053996;28;20070;-77
2024/01/08 07:40:05;;;;;;;16.75;9.15;;;-1.30;72.00;;;;;;5054102;28;20076;-74
2024/01/08 07:42:31;;;;;;;16.17;9.27;;;-1.40;58.10;;;;;;5057513;28;20523;-77
2024/01/08 07:44:56;;;;;;;15.85;9.05;;;-1.30;42.50;;;;;;5062934;28;20099;-77
2024/01/08 07:47:22;;;;;;;13.30;7.07;;;-1.20;21.30;;;;;;5051696;28;20028;-73
2024/01/08 07:49:48;;;;;;;11.63;5.38;;;-1.20;1.00;;;;;;5056946;28;20029;-76
2024/01/08 07:52:13;;;;;;;12.15;6.13;;;-1.20;1.00;;;;;;5065059;28;20021;-76
2024/01/08 07:54:39;;;;;;;11.50;5.65;;;-1.20;99.90;;;;;;5056994;28;20025;-76
2024/01/08 07:57:04;;;;;;;8.23;4.97;;;-1.20;99.90;;;;;;5061179;28;20510;-77
2024/01/08 07:59:30;;;;;;;7.80;4.80;;;-1.20;74.50;;;;;;5053885;28;20043;-76
2024/01/08 08:01:56;;;;;;;8.55;4.63;;;-1.30;70.30;;;;;;5066910;28;20083;-77
2024/01/08 08:04:21;;;;;;;13.23;4.35;;;-1.30;99.90;;;;;;5079551;28;20040;-77
2024/01/08 08:06:47;;;;;;;8.30;4.85;;;-1.40;1.00;;;;;;5058820;28;20502;-76
2024/01/08 08:09:12;;;;;;;4.40;3.08;;;-1.40;57.00;;;;;;5062746;28;20498;-74
2024/01/08 08:11:39;;;;;;;7.28;3.88;;;-1.40;99.90;;;;;;5055396;28;20082;-76
2024/01/08 08:14:05;;;;;;;7.53;4.28;;;-1.50;1.00;;;;;;5053679;28;20072;-75
2024/01/08 08:16:31;;;;;;;7.90;4.20;;;-1.50;33.20;;;;;;5053748;28;20037;-75
2024/01/08 08:18:56;;;;;;;6.45;3.90;;;-1.50;90.80;;;;;;5071604;28;20091;-75
2024/01/08 08:21:23;;;;;;;6.10;3.67;;;-1.40;1.00;;;;;;5073871;28;20108;-75
2024/01/08 08:23:48;;;;;;;9.27;4.55;;;-1.40;1.00;;;;;;5068738;28;20078;-75
2024/01/08 08:26:14;;;;;;;8.23;5.50;;;-1.40;99.90;;;;;;5058434;28;20040;-76
2024/01/08 08:28:40;;;;;;;6.85;3.97;;;-1.30;92.20;;;;;;5058398;28;20085;-76
2024/01/08 08:31:05;;;;;;;10.00;4.65;;;-1.20;99.90;;;;;;5059300;28;20036;-76
2024/01/08 08:33:31;;;;;;;8.43;4.55;;;-1.10;99.90;;;;;;5049349;28;20044;-75
2024/01/08 08:35:56;;;;;;;5.95;3.95;;;-0.90;1.00;;;;;;5065429;28;20505;-77
2024/01/08 08:38:22;;;;;;;7.43;4.20;;;-0.70;1.00;;;;;;5070683;28;20032;-75
2024/01/08 08:40:48;;;;;;;8.45;4.43;;;-0.60;99.90;;;;;;5056534;28;20470;-73
2024/01/08 08:43:13;;;;;;;7.25;3.83;;;-0.40;99.90;;;;;;5065383;28;20037;-75
2024/01/08 08:45:39;;;;;;;9.35;4.43;;;-0.70;1.00;;;;;;5052953;28;20435;-76
2024/01/08 08:48:05;;;;;;;9.68;4.82;;;-0.50;99.90;;;;;;5059057;28;20025;-75
2024/01/08 08:50:30;;;;;;;7.03;4.00;;;-0.40;99.90;;;;;;5067183;28;20106;-75
2024/01/08 08:52:56;;;;;;;4.80;3.40;;;-0.60;99.90;;;;;;5066334;28;20063;-75
2024/01/08 08:55:21;;;;;;;9.50;4.65;;;-0.60;99.90;;;;;;5053784;28;20097;-74
2024/01/08 08:57:47;;;;;;;7.85;4.15;;;-0.50;99.90;;;;;;5063224;28;20506;-74
2024/01/08 09:00:13;;;;;;;8.32;4.38;;;-0.30;99.90;;;;;;5067107;28;20055;-73
2024/01/08 09:02:38;;;;;;;8.82;4.57;;;-0.10;99.90;;;;;;5083280;28;20029;-74
2024/01/08 09:05:05;;;;;;;7.45;4.68;;;0.30;99.90;;;;;;5065374;28;20017;-72
2024/01/08 09:07:31;;;;;;;8.27;4.63;;;0.20;99.90;;;;;;5064255;28;20073;-75
2024/01/08 09:09:56;;;;;;;8.05;4.75;;;0.40;99.90;;;;;;5056682;28;20037;-75
2024/01/08 09:12:22;;;;;;;8.98;4.45;;;0.60;99.90;;;;;;5058081;28;20124;-75
2024/01/08 09:14:47;;;;;;;7.20;4.05;;;0.70;99.90;;;;;;5064155;28;20059;-76
2024/01/08 09:17:13;;;;;;;10.25;5.30;;;1.10;99.90;;;;;;5061535;28;20418;-74
2024/01/08 09:19:39;;;;;;;8.48;4.10;;;0.60;99.90;;;;;;5062458;28;20111;-71
2024/01/08 09:22:04;;;;;;;7.30;4.63;;;0.90;99.90;;;;;;5067902;28;20115;-75
2024/01/08 09:24:30;;;;;;;7.22;3.85;;;0.50;99.90;;;;;;5072763;28;20481;-77
2024/01/08 09:26:55;;;;;;;8.27;4.57;;;0.40;99.90;;;;;;5065489;28;20027;-77
2024/01/08 09:29:21;;;;;;;8.77;4.05;;;0.50;99.90;;;;;;5060859;28;20035;-77
2024/01/08 09:31:47;;;;;;;7.55;4.50;;;1.10;99.90;;;;;;5065377;28;20029;-76
2024/01/08 09:34:13;;;;;;;8.38;4.57;;;0.80;99.90;;;;;;5058459;28;20032;-74
2024/01/08 09:36:38;;;;;;;6.70;4.03;;;0.70;99.90;;;;;;5057820;28;20491;-76
2024/01/08 09:39:04;;;;;;;5.80;3.80;;;1.10;1.00;;;;;;5059638;28;20048;-74
2024/01/08 09:41:30;;;;;;;9.18;3.97;;;0.70;1.00;;;;;;5069859;28;20083;-75
2024/01/08 09:44:04;;;;;;;7.55;4.50;;;0.50;1.00;;;;;;5062119;28;20070;-75
2024/01/08 09:46:40;;;;;;;6.20;4.10;;;1.20;1.00;;;;;;5069945;28;20042;-77
2024/01/08 09:49:07;;;;;;;8.15;4.18;;;1.50;99.90;;;;;;5060265;28;20425;-76
2024/01/08 09:51:33;;;;;;;6.25;4.03;;;0.90;1.00;;;;;;5062844;28;20031;-76
2024/01/08 09:54:00;;;;;;;7.22;4.10;;;0.60;1.00;;;;;;5075279;28;20032;-76
2024/01/08 09:56:26;;;;;;;9.00;3.85;;;0.50;99.90;;;;;;5063926;28;20020;-74
2024/01/08 09:58:52;;;;;;;8.57;4.05;;;0.60;99.90;;;;;;5067713;28;20036;-76
2024/01/08 10:01:17;;;;;;;7.93;4.35;;;0.70;99.90;;;;;;5064939;28;20036;-75
2024/01/08 10:03:43;;;;;;;8.82;4.40;;;1.00;99.90;;;;;;5064807;28;20036;-76
2024/01/08 10:06:09;;;;;;;11.15;4.50;;;1.10;99.90;;;;;;5062085;28;20390;-75
2024/01/08 10:08:35;;;;;;;8.25;4.25;;;1.10;99.90;;;;;;5062956;28;20463;-76
2024/01/08 10:11:03;;;;;;;9.07;4.60;;;1.50;99.90;;;;;;5058579;28;20039;-75
2024/01/08 10:13:28;;;;;;;6.25;3.00;;;1.10;99.90;;;;;;5054615;28;20024;-76
2024/01/08 10:15:54;;;;;;;9.10;4.00;;;0.20;99.90;;;;;;5056867;28;20079;-75
2024/01/08 10:18:19;;;;;;;6.55;3.90;;;0.00;99.90;;;;;;5055858;28;20033;-75
2024/01/08 10:20:45;;;;;;;6.43;4.10;;;0.40;99.90;;;;;;5055495;28;20051;-74
2024/01/08 10:23:16;;;;;;;6.38;4.20;;;0.30;99.90;;;;;;5062061;28;20109;-75
2024/01/08 10:25:49;;;;;;;7.35;4.25;;;0.30;99.90;;;;;;5064307;28;20031;-76
2024/01/08 10:28:16;;;;;;;7.85;4.10;;;0.10;99.90;;;;;;5067280;28;20037;-75
2024/01/08 10:30:42;;;;;;;8.80;3.95;;;0.10;1.00;;;;;;5069627;28;20040;-75
2024/01/08 10:33:08;;;;;;;7.95;4.15;;;0.50;1.00;;;;;;5063938;28;20368;-75
2024/01/08 10:35:35;;;;;;;5.63;3.55;;;0.40;1.00;;;;;;5054110;28;20033;-74
2024/01/08 10:38:01;;;;;;;6.55;3.70;;;0.20;99.90;;;;;;5055232;28;20099;-73
2024/01/08 10:40:28;;;;;;;6.93;4.07;;;0.70;99.90;;;;;;5061221;28;20048;-74
2024/01/08 10:42:54;;;;;;;6.63;3.75;;;0.70;99.90;;;;;;5055394;28;20029;-74
2024/01/08 10:45:20;;;;;;;6.25;3.70;;;1.00;99.90;;;;;;5067326;28;20441;-74
2024/01/08 10:47:51;;;;;;;5.15;3.50;;;0.40;99.90;;;;;;5056901;28;20036;-74
2024/01/08 10:50:20;;;;;;;6.70;3.97;;;0.30;1.00;;;;;;5063076;28;20090;-74
2024/01/08 10:52:53;;;;;;;8.27;3.90;;;0.60;99.90;;;;;;5055190;28;20524;-73
2024/01/08 10:55:21;;;;;;;5.78;3.42;;;0.20;1.00;;;;;;5051837;28;21015;-75
2024/01/08 10:58:03;;;;;;;5.93;3.42;;;-0.10;1.00;;;;;;5058175;28;20071;-73
2024/01/08 11:00:29;;;;;;;3.83;2.70;;;-0.10;1.00;;;;;;5054668;28;20120;-73
2024/01/08 11:02:55;;;;;;;7.20;3.92;;;-0.40;1.00;;;;;;5059147;28;20409;-73
2024/01/08 11:05:21;;;;;;;8.10;3.80;;;-0.30;1.00;;;;;;5054871;28;20334;-73
2024/01/08 11:07:50;;;;;;;7.57;3.67;;;-0.10;1.00;;;;;;5053329;28;20035;-73
2024/01/08 11:10:16;;;;;;;7.07;3.70;;;0.20;99.90;;;;;;5054998;28;20375;-74
2024/01/08 11:12:51;;;;;;;7.72;3.47;;;0.40;99.90;;;;;;5054563;28;20119;-73
2024/01/08 11:15:17;;;;;;;6.88;3.88;;;0.50;99.90;;;;;;5057471;28;20467;-72
2024/01/08 11:17:52;;;;;;;7.50;4.47;;;0.70;99.90;;;;;;5062395;28;20033;-73
2024/01/08 11:20:40;;;;;;;6.70;3.50;;;0.80;99.90;;;;;;5068818;28;20478;-73
2024/01/08 11:23:41;;;;;;;5.40;3.40;;;1.20;99.90;;;;;;5061303;28;20040;-74
2024/01/08 11:29:03;;;;;;;4.03;2.70;;;0.40;99.90;;;;;;5088571;27;20451;-72
2024/01/08 11:31:53;;;;;;;6.28;2.95;;;-0.40;99.90;;;;;;5087767;28;20085;-75
2024/01/08 11:37:33;;;;;;;7.20;4.10;;;-0.50;99.90;;;;;;5110584;27;20174;-74
2024/01/08 11:40:02;;;;;;;6.13;3.70;;;-0.80;99.90;;;;;;5093120;28;20420;-74
2024/01/08 11:42:29;;;;;;;7.43;3.58;;;-0.70;99.90;;;;;;5088242;28;20509;-73
2024/01/08 11:44:58;;;;;;;6.13;3.55;;;-0.50;99.90;;;;;;5088403;28;20021;-74
2024/01/08 11:47:24;;;;;;;8.38;4.28;;;-0.30;99.90;;;;;;5088098;28;20036;-74
2024/01/08 11:49:52;;;;;;;5.63;3.08;;;-0.40;99.90;;;;;;5087617;28;20024;-74
2024/01/08 11:52:19;;;;;;;5.50;3.22;;;-0.50;99.90;;;;;;5086207;28;20032;-75
2024/01/08 11:54:48;;;;;;;5.95;3.55;;;-0.80;1.00;;;;;;5082564;28;20094;-74
2024/01/08 11:57:16;;;;;;;7.57;3.55;;;-0.80;99.90;;;;;;5080713;28;20102;-74
2024/01/08 11:59:42;;;;;;;7.07;3.75;;;-0.70;99.90;;;;;;5071264;28;20116;-75
2024/01/08 12:02:14;;;;;;;4.70;3.50;;;-0.70;99.90;;;;;;5086068;28;20166;-75
2024/01/08 12:04:44;;;;;;;4.32;2.65;;;-0.90;99.90;;;;;;5084618;28;20034;-74
2024/01/08 12:07:12;;;;;;;6.07;2.38;;;-1.00;99.90;;;;;;5084212;28;20402;-74
2024/01/08 12:09:42;;;;;;;5.00;3.58;;;-1.20;99.90;;;;;;5078515;28;20032;-74
2024/01/08 12:12:10;;;;;;;7.50;3.78;;;-1.00;99.90;;;;;;5083058;28;20036;-74
2024/01/08 12:14:36;;;;;;;9.05;3.80;;;-0.70;99.90;;;;;;5057819;28;20033;-75
2024/01/08 12:17:03;;;;;;;5.20;3.10;;;-0.70;99.90;;;;;;5050383;28;20029;-74
2024/01/08 12:19:42;;;;;;;5.25;3.20;;;-0.80;99.90;;;;;;5053479;28;20109;-74
2024/01/08 12:22:12;;;;;;;4.50;2.83;;;-0.80;99.90;;;;;;5056996;28;20040;-76
2024/01/08 12:24:39;;;;;;;6.97;3.20;;;-1.00;1.00;;;;;;5076272;28;20520;-74
2024/01/08 12:27:06;;;;;;;7.90;3.63;;;-1.00;1.00;;;;;;5062446;28;20047;-74
2024/01/08 12:29:39;;;;;;;4.97;2.72;;;-1.00;1.00;;;;;;5059918;28;20038;-75
2024/01/08 12:32:06;;;;;;;6.55;3.65;;;-1.10;99.90;;;;;;5051045;28;20037;-75
2024/01/08 12:34:33;;;;;;;8.40;3.17;;;-1.10;1.00;;;;;;5060998;28;20509;-75
2024/01/08 12:37:00;;;;;;;4.88;2.33;;;-1.00;1.00;;;;;;5068340;28;20139;-76
2024/01/08 12:39:31;;;;;;;7.35;3.55;;;-1.10;1.00;;;;;;5067489;28;20033;-75
2024/01/08 12:41:58;;;;;;;6.47;3.47;;;-1.10;1.00;;;;;;5064479;28;20028;-74
2024/01/08 12:44:26;;;;;;;6.25;3.45;;;-0.90;99.90;;;;;;5052431;28;20056;-74
2024/01/08 12:46:53;;;;;;;5.82;3.08;;;-0.90;99.90;;;;;;5055998;28;20417;-73